Time;durP1;ratioP1;P1;durP2;ratioP2;P2;SDS_P1;SDS_P2;PMS_P1;PMS_P2;Temp;Humidity;BMP_temperature;BMP_pressure;BME280_temperature;BME280_humidity;BME280_pressure;Samples;Min_cycle;Max_cycle;Signal;HPM_P1;HPM_P2
2023/07/21 00:01:14;;;;;;;0.25;0.25;;;26.00;82.40;;;;;;4840583;29;20213;-88
2023/07/21 00:03:43;;;;;;;1.17;1.08;;;26.00;82.20;;;;;;4842884;29;20718;-87
2023/07/21 00:06:17;;;;;;;3.40;0.82;;;26.00;82.20;;;;;;4840784;29;20232;-87
2023/07/21 00:08:45;;;;;;;1.20;0.73;;;26.00;82.20;;;;;;4841809;29;20207;-88
2023/07/21 00:11:16;;;;;;;0.30;0.30;;;25.90;81.90;;;;;;4844323;29;20237;-90
2023/07/21 00:13:45;;;;;;;0.55;0.43;;;25.90;81.90;;;;;;4841632;29;20256;-90
2023/07/21 00:16:13;;;;;;;0.50;0.50;;;25.90;81.70;;;;;;4840146;29;20206;-89
2023/07/21 00:18:42;;;;;;;1.00;0.47;;;25.90;81.80;;;;;;4841826;29;20257;-89
2023/07/21 00:21:11;;;;;;;0.43;0.43;;;25.90;82.00;;;;;;4849892;29;20217;-87
2023/07/21 00:23:40;;;;;;;1.90;1.20;;;25.80;81.70;;;;;;4843705;29;20202;-88
2023/07/21 00:26:09;;;;;;;2.15;1.13;;;25.90;81.80;;;;;;4838588;29;20646;-87
2023/07/21 00:28:39;;;;;;;0.65;0.55;;;25.80;82.10;;;;;;4840472;29;20294;-87
2023/07/21 00:31:07;;;;;;;0.35;0.35;;;25.80;82.20;;;;;;4842874;29;20198;-87
2023/07/21 00:33:36;;;;;;;0.47;0.47;;;25.80;81.90;;;;;;4837653;29;20202;-88
2023/07/21 00:36:06;;;;;;;0.30;0.30;;;25.80;81.90;;;;;;4844377;29;20203;-88
2023/07/21 00:38:35;;;;;;;0.45;0.43;;;25.80;81.80;;;;;;4842527;29;20619;-86
2023/07/21 00:41:04;;;;;;;1.75;0.70;;;25.80;82.10;;;;;;4842734;29;20222;-87
2023/07/21 00:43:32;;;;;;;1.88;0.38;;;25.80;82.40;;;;;;4842797;29;20290;-90
2023/07/21 00:46:02;;;;;;;0.73;0.60;;;25.70;82.40;;;;;;4842764;29;20206;-88
2023/07/21 00:48:32;;;;;;;2.05;0.55;;;25.70;82.80;;;;;;4842344;29;20195;-89
2023/07/21 00:51:01;;;;;;;1.05;0.65;;;25.70;83.60;;;;;;4843316;29;20238;-89
2023/07/21 00:53:30;;;;;;;0.20;0.20;;;25.60;83.50;;;;;;4849409;29;20633;-90
2023/07/21 00:55:59;;;;;;;0.50;0.50;;;25.60;83.40;;;;;;4842978;29;20206;-89
2023/07/21 00:58:28;;;;;;;4.15;1.52;;;25.60;83.10;;;;;;4843308;29;20203;-89
2023/07/21 01:00:56;;;;;;;0.30;0.30;;;25.60;82.90;;;;;;4844192;29;20293;-88
2023/07/21 01:03:26;;;;;;;0.55;0.55;;;25.60;83.10;;;;;;4843445;29;20210;-89
2023/07/21 01:05:56;;;;;;;0.80;0.80;;;25.60;84.20;;;;;;4842969;29;20234;-89
2023/07/21 01:08:25;;;;;;;0.88;0.85;;;25.60;84.80;;;;;;4842120;29;20589;-89
2023/07/21 01:10:55;;;;;;;0.32;0.32;;;25.50;84.30;;;;;;4843056;29;20208;-89
2023/07/21 01:13:26;;;;;;;0.43;0.43;;;25.40;84.00;;;;;;4843326;29;20259;-89
2023/07/21 01:15:56;;;;;;;0.30;0.30;;;25.40;83.80;;;;;;4840743;29;20293;-88
2023/07/21 01:18:27;;;;;;;0.45;0.45;;;25.40;83.90;;;;;;4840467;29;20202;-88
2023/07/21 01:20:57;;;;;;;0.32;0.32;;;25.40;83.80;;;;;;4842820;29;20222;-88
2023/07/21 01:23:34;;;;;;;0.88;0.63;;;25.40;83.60;;;;;;4836197;29;20205;-87
2023/07/21 01:26:05;;;;;;;0.95;0.80;;;25.40;83.30;;;;;;4843355;29;20455;-91
2023/07/21 01:28:34;;;;;;;0.60;0.40;;;25.40;83.30;;;;;;4841975;29;20286;-88
2023/07/21 01:31:04;;;;;;;0.20;0.20;;;25.40;83.30;;;;;;4842174;29;20686;-89
2023/07/21 01:33:33;;;;;;;0.40;0.40;;;25.40;83.30;;;;;;4841495;29;20210;-89
2023/07/21 01:36:04;;;;;;;0.30;0.30;;;25.40;83.40;;;;;;4842032;29;20222;-88
2023/07/21 01:38:33;;;;;;;0.30;0.30;;;25.40;83.30;;;;;;4842650;29;20201;-89
2023/07/21 01:41:03;;;;;;;0.38;0.38;;;25.40;83.30;;;;;;4842908;29;20223;-90
2023/07/21 01:43:32;;;;;;;0.68;0.68;;;25.40;83.90;;;;;;4839794;29;20629;-91
2023/07/21 01:46:09;;;;;;;0.22;0.22;;;25.30;83.80;;;;;;4840456;29;20221;-88
2023/07/21 01:48:38;;;;;;;0.30;0.30;;;25.40;83.90;;;;;;4841859;29;20202;-91
2023/07/21 01:51:07;;;;;;;0.20;0.20;;;25.30;84.30;;;;;;4840185;29;20202;-91
2023/07/21 01:53:38;;;;;;;0.50;0.50;;;25.30;84.20;;;;;;4834521;29;20571;-89
2023/07/21 01:56:13;;;;;;;0.98;0.88;;;25.30;84.00;;;;;;4835942;29;20285;-89
2023/07/21 01:58:43;;;;;;;0.30;0.30;;;25.20;83.70;;;;;;4839372;29;20660;-91
2023/07/21 02:01:12;;;;;;;1.15;0.63;;;25.20;83.60;;;;;;4842028;29;20255;-91
2023/07/21 02:03:42;;;;;;;0.30;0.30;;;25.20;83.80;;;;;;4840162;29;20271;-89
2023/07/21 02:06:14;;;;;;;0.75;0.57;;;25.20;83.60;;;;;;4840675;29;20234;-90
2023/07/21 02:08:42;;;;;;;0.90;0.45;;;25.20;83.60;;;;;;4836565;29;20209;-89
2023/07/21 02:11:13;;;;;;;0.20;0.20;;;25.20;83.60;;;;;;4842187;29;20839;-90
2023/07/21 02:13:42;;;;;;;0.55;0.40;;;25.20;83.70;;;;;;4841006;29;20570;-87
2023/07/21 02:16:10;;;;;;;0.93;0.88;;;25.20;83.70;;;;;;4843278;29;20199;-89
2023/07/21 02:18:40;;;;;;;0.52;0.40;;;25.20;83.60;;;;;;4837627;29;20206;-89
2023/07/21 02:21:08;;;;;;;0.47;0.47;;;25.10;83.60;;;;;;4841867;29;20601;-88
2023/07/21 02:23:37;;;;;;;0.65;0.30;;;25.10;83.60;;;;;;4838910;29;20301;-88
2023/07/21 02:26:06;;;;;;;1.50;0.70;;;25.10;84.00;;;;;;4836656;29;20694;-89
2023/07/21 02:28:36;;;;;;;0.55;0.50;;;25.10;84.40;;;;;;4840243;29;20203;-89
2023/07/21 02:31:06;;;;;;;3.25;0.80;;;25.10;84.30;;;;;;4840466;29;20266;-89
2023/07/21 02:33:36;;;;;;;0.43;0.43;;;25.00;84.20;;;;;;4841432;29;20244;-88
2023/07/21 02:36:06;;;;;;;1.55;0.40;;;25.00;84.20;;;;;;4841910;29;20225;-87
2023/07/21 02:38:35;;;;;;;1.13;1.02;;;25.00;84.10;;;;;;4840755;29;20293;-88
2023/07/21 02:41:04;;;;;;;1.27;1.00;;;25.00;84.20;;;;;;4837458;29;20317;-88
2023/07/21 02:43:33;;;;;;;0.85;0.60;;;24.90;84.50;;;;;;4841198;29;20220;-89
2023/07/21 02:46:04;;;;;;;0.82;0.77;;;24.90;84.70;;;;;;4834059;29;20560;-89
2023/07/21 02:48:34;;;;;;;0.47;0.47;;;24.80;84.60;;;;;;4839228;29;20203;-87
2023/07/21 02:51:04;;;;;;;0.40;0.40;;;24.80;84.70;;;;;;4838379;29;20666;-90
2023/07/21 02:53:33;;;;;;;0.60;0.60;;;24.80;85.40;;;;;;4841011;29;20554;-89
2023/07/21 02:56:03;;;;;;;1.00;0.90;;;24.80;86.00;;;;;;4840403;29;20653;-89
2023/07/21 02:58:32;;;;;;;0.20;0.20;;;24.70;86.10;;;;;;4840810;29;20671;-90
2023/07/21 03:01:03;;;;;;;0.30;0.30;;;24.70;86.60;;;;;;4838631;29;20325;-90
2023/07/21 03:03:32;;;;;;;2.13;0.82;;;24.70;87.20;;;;;;4840887;29;20290;-89
2023/07/21 03:06:01;;;;;;;0.40;0.40;;;24.70;88.00;;;;;;4840441;29;20234;-89
2023/07/21 03:08:30;;;;;;;0.55;0.55;;;24.70;88.70;;;;;;4838032;29;20240;-90
2023/07/21 03:10:59;;;;;;;1.30;0.55;;;24.60;89.00;;;;;;4834845;29;20735;-89
2023/07/21 03:13:28;;;;;;;0.90;0.80;;;24.60;89.50;;;;;;4839911;29;20199;-90
2023/07/21 03:15:56;;;;;;;0.80;0.73;;;24.60;89.50;;;;;;4838030;29;20566;-90
2023/07/21 03:18:31;;;;;;;0.30;0.30;;;24.60;89.20;;;;;;4840588;29;20263;-89
2023/07/21 03:21:00;;;;;;;0.75;0.57;;;24.60;89.10;;;;;;4838272;29;20683;-89
2023/07/21 03:23:28;;;;;;;0.30;0.30;;;24.60;88.90;;;;;;4839344;29;20227;-87
2023/07/21 03:25:57;;;;;;;0.63;0.50;;;24.60;89.20;;;;;;4839410;29;20206;-89
2023/07/21 03:28:26;;;;;;;2.05;0.85;;;24.60;89.60;;;;;;4840668;29;20538;-89
2023/07/21 03:30:58;;;;;;;0.57;0.45;;;24.60;89.50;;;;;;4839767;29;20207;-89
2023/07/21 03:33:27;;;;;;;1.15;0.90;;;24.60;89.50;;;;;;4841177;29;20786;-90
2023/07/21 03:36:02;;;;;;;2.10;1.00;;;24.60;89.40;;;;;;4845331;29;20205;-88
2023/07/21 03:38:35;;;;;;;0.80;0.80;;;24.60;89.90;;;;;;4844237;29;20275;-89
2023/07/21 03:41:05;;;;;;;0.30;0.30;;;24.60;89.80;;;;;;4843650;29;20257;-86
2023/07/21 03:43:35;;;;;;;0.95;0.82;;;24.60;89.80;;;;;;4843460;29;20293;-88
2023/07/21 03:46:06;;;;;;;0.60;0.52;;;24.60;89.70;;;;;;4843337;29;20286;-88
2023/07/21 03:48:35;;;;;;;1.58;1.23;;;24.70;90.00;;;;;;4838594;29;20656;-87
2023/07/21 03:51:07;;;;;;;0.77;0.60;;;24.70;89.90;;;;;;4840984;29;20234;-87
2023/07/21 03:53:36;;;;;;;0.50;0.50;;;24.70;89.60;;;;;;4839926;29;20213;-87
2023/07/21 03:56:05;;;;;;;2.58;1.33;;;24.80;89.40;;;;;;4845257;29;20574;-88
2023/07/21 03:58:34;;;;;;;0.38;0.38;;;24.80;89.10;;;;;;4842437;29;20290;-86
2023/07/21 04:01:03;;;;;;;0.30;0.30;;;24.80;89.00;;;;;;4842629;29;20232;-86
2023/07/21 04:03:31;;;;;;;0.50;0.50;;;24.90;88.80;;;;;;4844654;29;20209;-89
2023/07/21 04:06:07;;;;;;;0.95;0.75;;;25.00;88.70;;;;;;4818490;29;20317;-87
2023/07/21 04:08:36;;;;;;;1.15;0.70;;;25.00;88.50;;;;;;4822682;29;20217;-88
2023/07/21 04:11:05;;;;;;;1.10;0.77;;;25.00;88.20;;;;;;4817843;29;20655;-86
2023/07/21 04:13:34;;;;;;;0.50;0.50;;;25.10;88.00;;;;;;4823588;29;20239;-89
2023/07/21 04:16:02;;;;;;;0.80;0.60;;;25.10;87.20;;;;;;4825123;29;20201;-89
2023/07/21 04:18:31;;;;;;;0.50;0.50;;;25.10;86.60;;;;;;4823439;29;20282;-88
2023/07/21 04:20:59;;;;;;;4.88;1.20;;;25.20;86.50;;;;;;4819662;29;20233;-87
2023/07/21 04:23:29;;;;;;;1.95;0.40;;;25.20;86.10;;;;;;4823035;29;20298;-87
2023/07/21 04:25:58;;;;;;;0.47;0.47;;;25.30;86.00;;;;;;4825275;29;20336;-87
2023/07/21 04:28:26;;;;;;;1.30;1.02;;;25.30;85.80;;;;;;4823139;29;20218;-87
2023/07/21 04:30:56;;;;;;;2.70;1.08;;;25.40;85.50;;;;;;4824055;29;20218;-87
2023/07/21 04:33:24;;;;;;;1.35;1.20;;;25.40;85.30;;;;;;4821286;29;20208;-88
2023/07/21 04:35:53;;;;;;;0.80;0.80;;;25.40;85.00;;;;;;4823561;29;20660;-89
2023/07/21 04:38:22;;;;;;;1.25;0.40;;;25.40;84.60;;;;;;4819924;29;20205;-86
2023/07/21 04:40:52;;;;;;;0.47;0.47;;;25.50;84.60;;;;;;4823620;29;20234;-87
2023/07/21 04:43:20;;;;;;;1.08;0.98;;;25.50;84.00;;;;;;4822741;29;20203;-86
2023/07/21 04:45:49;;;;;;;1.20;0.80;;;25.60;83.60;;;;;;4824075;29;20263;-88
2023/07/21 04:48:18;;;;;;;0.55;0.55;;;25.60;83.20;;;;;;4822713;29;20214;-86
2023/07/21 04:50:52;;;;;;;0.35;0.30;;;25.60;82.60;;;;;;4817863;29;20728;-87
2023/07/21 04:53:22;;;;;;;0.63;0.47;;;25.60;82.20;;;;;;4818555;29;20204;-88
2023/07/21 04:55:56;;;;;;;0.75;0.45;;;25.70;82.40;;;;;;4821135;29;20294;-87
2023/07/21 04:58:24;;;;;;;0.75;0.65;;;25.70;82.40;;;;;;4821633;29;20252;-88
2023/07/21 05:00:54;;;;;;;0.40;0.40;;;25.80;82.10;;;;;;4823209;29;20715;-87
2023/07/21 05:03:23;;;;;;;0.20;0.20;;;25.80;82.20;;;;;;4823902;29;20284;-86
2023/07/21 05:05:52;;;;;;;2.13;0.70;;;26.00;82.20;;;;;;4826277;29;20310;-87
2023/07/21 05:08:20;;;;;;;1.20;0.95;;;26.00;81.90;;;;;;4833959;29;20211;-87
2023/07/21 05:10:49;;;;;;;0.63;0.50;;;26.00;81.20;;;;;;4840966;29;20217;-87
2023/07/21 05:13:19;;;;;;;0.40;0.40;;;26.10;81.30;;;;;;4843066;29;20286;-88
2023/07/21 05:15:49;;;;;;;0.40;0.40;;;26.10;81.30;;;;;;4837069;29;20213;-87
2023/07/21 05:18:20;;;;;;;1.45;1.20;;;26.10;81.30;;;;;;4837187;29;20210;-86
2023/07/21 05:20:49;;;;;;;0.75;0.75;;;26.20;81.20;;;;;;4834913;29;20581;-86
2023/07/21 05:23:18;;;;;;;0.85;0.75;;;26.20;80.10;;;;;;4840318;29;20199;-87
2023/07/21 05:25:46;;;;;;;0.95;0.82;;;26.30;80.10;;;;;;4841863;29;20554;-86
2023/07/21 05:28:16;;;;;;;0.50;0.35;;;26.30;79.60;;;;;;4834943;29;20213;-88
2023/07/21 05:30:48;;;;;;;0.57;0.57;;;26.40;79.50;;;;;;4841236;29;20724;-87
2023/07/21 05:33:17;;;;;;;0.80;0.70;;;26.40;79.50;;;;;;4838685;29;20203;-87
2023/07/21 05:35:46;;;;;;;0.57;0.43;;;26.40;79.20;;;;;;4838922;29;20207;-88
2023/07/21 05:38:14;;;;;;;0.40;0.40;;;26.40;79.10;;;;;;4841599;29;20243;-87
2023/07/21 05:40:43;;;;;;;0.65;0.40;;;26.50;79.20;;;;;;4840361;29;20271;-87
2023/07/21 05:43:12;;;;;;;0.82;0.47;;;26.50;78.90;;;;;;4840714;29;20320;-88
2023/07/21 05:45:41;;;;;;;1.00;0.80;;;26.60;78.40;;;;;;4841021;29;20237;-85
2023/07/21 05:48:11;;;;;;;1.77;1.02;;;26.60;78.50;;;;;;4837639;29;20622;-82
2023/07/21 05:50:39;;;;;;;2.17;0.60;;;26.70;78.30;;;;;;4837291;29;20202;-83
2023/07/21 05:53:08;;;;;;;0.20;0.20;;;26.70;78.30;;;;;;4839630;29;20297;-84
2023/07/21 05:55:37;;;;;;;0.30;0.30;;;26.70;78.00;;;;;;4835055;29;20215;-83
2023/07/21 05:58:05;;;;;;;1.15;0.75;;;26.80;78.30;;;;;;4836468;29;20206;-84
2023/07/21 06:00:36;;;;;;;0.40;0.40;;;26.80;77.90;;;;;;4833803;29;20210;-84
2023/07/21 06:03:05;;;;;;;0.77;0.75;;;26.90;77.80;;;;;;4830489;29;20354;-84
2023/07/21 06:05:36;;;;;;;0.47;0.47;;;27.00;77.40;;;;;;4835261;29;20340;-84
2023/07/21 06:08:05;;;;;;;0.77;0.75;;;27.00;77.40;;;;;;4834791;29;20210;-83
2023/07/21 06:10:34;;;;;;;1.23;0.75;;;27.10;77.10;;;;;;4834729;29;20302;-86
2023/07/21 06:13:04;;;;;;;0.57;0.57;;;27.20;77.00;;;;;;4830156;29;20202;-84
2023/07/21 06:15:34;;;;;;;0.45;0.45;;;27.20;76.50;;;;;;4838553;29;20207;-84
2023/07/21 06:18:03;;;;;;;0.82;0.68;;;27.20;76.40;;;;;;4831466;29;20195;-84
2023/07/21 06:20:32;;;;;;;1.65;1.50;;;27.30;76.10;;;;;;4836921;29;20206;-83
2023/07/21 06:23:03;;;;;;;1.88;0.88;;;27.30;75.50;;;;;;4833672;29;20230;-84
2023/07/21 06:25:31;;;;;;;0.50;0.50;;;27.40;75.60;;;;;;4838652;29;20546;-85
2023/07/21 06:28:00;;;;;;;0.35;0.35;;;27.50;75.60;;;;;;4837002;29;20213;-85
2023/07/21 06:30:32;;;;;;;0.60;0.47;;;27.50;75.40;;;;;;4835528;29;21113;-86
2023/07/21 06:33:04;;;;;;;0.30;0.30;;;27.60;75.20;;;;;;4836510;29;20293;-87
2023/07/21 06:35:34;;;;;;;1.20;1.05;;;27.70;75.40;;;;;;4838084;29;20202;-87
2023/07/21 06:38:05;;;;;;;0.40;0.38;;;27.70;75.50;;;;;;4839807;29;20210;-89
2023/07/21 06:40:35;;;;;;;0.95;0.80;;;27.80;75.30;;;;;;4839592;29;20317;-88
2023/07/21 06:43:04;;;;;;;0.38;0.38;;;27.90;74.90;;;;;;4837074;29;20218;-86
2023/07/21 06:45:33;;;;;;;0.50;0.50;;;27.90;74.60;;;;;;4838312;29;20571;-86
2023/07/21 06:48:02;;;;;;;0.50;0.50;;;28.00;74.20;;;;;;4836665;29;20212;-86
2023/07/21 06:50:30;;;;;;;2.05;0.75;;;28.00;73.40;;;;;;4838535;29;20235;-86
2023/07/21 06:52:59;;;;;;;0.50;0.50;;;28.00;73.40;;;;;;4840570;29;20212;-88
2023/07/21 06:55:29;;;;;;;0.80;0.75;;;28.10;73.20;;;;;;4837545;29;20231;-88
2023/07/21 06:57:57;;;;;;;1.10;1.00;;;28.20;72.90;;;;;;4835644;29;20199;-86
2023/07/21 07:00:26;;;;;;;0.63;0.63;;;28.20;72.70;;;;;;4838252;29;20218;-87
2023/07/21 07:02:56;;;;;;;0.82;0.55;;;28.30;72.70;;;;;;4841127;29;20569;-87
2023/07/21 07:05:25;;;;;;;1.13;0.75;;;28.30;72.60;;;;;;4838377;29;20249;-87
2023/07/21 07:07:53;;;;;;;1.08;0.80;;;28.40;72.70;;;;;;4837879;29;20586;-88
2023/07/21 07:10:22;;;;;;;0.60;0.40;;;28.50;72.70;;;;;;4839244;29;20206;-87
2023/07/21 07:12:52;;;;;;;2.40;0.82;;;28.50;72.60;;;;;;4841019;29;20561;-87
2023/07/21 07:15:21;;;;;;;0.40;0.40;;;28.60;72.30;;;;;;4838608;29;20722;-88
2023/07/21 07:17:50;;;;;;;4.43;1.08;;;28.60;71.70;;;;;;4842370;29;20236;-87
2023/07/21 07:26:55;;;;;;;0.40;0.40;;;28.80;71.00;;;;;;4739824;30;20225;-86
2023/07/21 07:29:26;;;;;;;0.43;0.43;;;28.80;70.90;;;;;;4775799;29;20264;-85
2023/07/21 07:31:57;;;;;;;0.40;0.40;;;28.80;69.70;;;;;;4830153;29;20234;-86
2023/07/21 07:34:31;;;;;;;0.30;0.30;;;28.80;69.40;;;;;;4848786;29;20717;-86
2023/07/21 07:37:01;;;;;;;0.50;0.50;;;28.90;69.90;;;;;;4850750;29;20562;-88
2023/07/21 07:39:32;;;;;;;0.63;0.52;;;28.90;70.40;;;;;;4842955;29;20581;-87
2023/07/21 07:42:02;;;;;;;2.45;1.00;;;29.00;70.20;;;;;;4842521;29;20564;-89
2023/07/21 07:44:41;;;;;;;1.55;0.40;;;29.00;70.00;;;;;;4841464;29;20210;-85
2023/07/21 07:47:11;;;;;;;0.50;0.32;;;29.00;69.90;;;;;;4827765;29;20579;-88
2023/07/21 07:49:39;;;;;;;0.47;0.40;;;29.10;69.20;;;;;;4839574;29;20207;-86
2023/07/21 07:52:09;;;;;;;0.40;0.40;;;29.10;69.20;;;;;;4842625;29;20386;-85
2023/07/21 07:54:38;;;;;;;0.30;0.30;;;29.20;69.30;;;;;;4841933;29;20722;-83
2023/07/21 07:57:08;;;;;;;1.02;0.65;;;29.20;68.90;;;;;;4848109;29;20234;-83
2023/07/21 07:59:38;;;;;;;0.55;0.50;;;29.30;68.10;;;;;;4837729;29;20206;-88
2023/07/21 08:02:07;;;;;;;0.47;0.47;;;29.30;68.10;;;;;;4842886;29;20198;-87
2023/07/21 08:04:36;;;;;;;0.70;0.70;;;29.30;67.60;;;;;;4836697;29;20221;-87
2023/07/21 08:07:06;;;;;;;1.60;0.40;;;29.30;67.20;;;;;;4841831;29;20214;-89
2023/07/21 08:09:35;;;;;;;0.50;0.40;;;29.40;66.60;;;;;;4850682;24;20333;-86
2023/07/21 08:12:10;;;;;;;1.38;0.57;;;29.50;67.00;;;;;;4838576;29;20211;-91
2023/07/21 08:14:48;;;;;;;0.25;0.25;;;29.50;67.30;;;;;;4831353;29;20203;-86
2023/07/21 08:17:16;;;;;;;0.50;0.50;;;29.60;66.60;;;;;;4836323;29;20201;-81
2023/07/21 08:19:45;;;;;;;0.90;0.82;;;29.60;66.60;;;;;;4841953;29;20214;-82
2023/07/21 08:22:15;;;;;;;1.00;0.60;;;29.60;66.20;;;;;;4836802;29;20585;-81
2023/07/21 08:24:43;;;;;;;0.93;0.50;;;29.60;65.80;;;;;;4839251;29;20236;-83
2023/07/21 08:27:12;;;;;;;1.85;0.60;;;29.70;65.00;;;;;;4837143;29;20222;-82
2023/07/21 08:29:40;;;;;;;0.38;0.38;;;29.70;65.40;;;;;;4838641;29;20297;-81
2023/07/21 08:32:11;;;;;;;1.05;0.68;;;29.80;65.70;;;;;;4834652;29;20205;-84
2023/07/21 08:34:39;;;;;;;0.47;0.47;;;29.80;66.00;;;;;;4837724;29;20283;-82
2023/07/21 08:37:08;;;;;;;2.15;0.88;;;29.80;65.80;;;;;;4832604;29;20264;-83
2023/07/21 08:39:36;;;;;;;0.95;0.52;;;29.90;65.90;;;;;;4836527;29;20235;-88
2023/07/21 08:42:13;;;;;;;0.50;0.50;;;29.90;65.80;;;;;;4837998;29;20202;-86
2023/07/21 08:44:44;;;;;;;0.52;0.52;;;30.00;65.70;;;;;;4836673;29;20344;-86
2023/07/21 08:47:15;;;;;;;0.50;0.50;;;30.00;65.70;;;;;;4840588;29;20297;-85
2023/07/21 08:49:44;;;;;;;0.50;0.50;;;30.10;66.10;;;;;;4827619;29;21229;-83
2023/07/21 08:52:15;;;;;;;0.77;0.77;;;30.10;66.00;;;;;;4836083;29;20199;-84
2023/07/21 08:54:44;;;;;;;1.05;0.95;;;30.10;65.80;;;;;;4836002;29;21098;-82
2023/07/21 08:57:14;;;;;;;0.45;0.40;;;30.20;65.20;;;;;;4839543;29;20206;-82
2023/07/21 08:59:43;;;;;;;0.30;0.30;;;30.20;64.80;;;;;;4839167;29;20333;-85
2023/07/21 09:02:12;;;;;;;0.75;0.55;;;30.30;64.80;;;;;;4831864;29;20204;-83
2023/07/21 09:04:44;;;;;;;0.68;0.47;;;30.30;64.90;;;;;;4839817;29;20230;-82
2023/07/21 09:07:13;;;;;;;0.30;0.30;;;30.30;63.90;;;;;;4831600;29;20286;-81
2023/07/21 09:09:50;;;;;;;0.50;0.50;;;30.40;64.00;;;;;;4829950;29;20325;-81
2023/07/21 09:12:19;;;;;;;0.50;0.50;;;30.40;63.90;;;;;;4830818;29;20591;-81
2023/07/21 09:14:47;;;;;;;0.50;0.50;;;30.40;63.70;;;;;;4830769;29;20203;-82
2023/07/21 09:17:16;;;;;;;0.50;0.50;;;30.50;63.20;;;;;;4833273;29;20853;-81
2023/07/21 09:19:46;;;;;;;3.13;0.90;;;30.50;63.50;;;;;;4836926;29;20249;-82
2023/07/21 09:22:15;;;;;;;0.75;0.65;;;30.60;63.80;;;;;;4831847;29;20206;-80
2023/07/21 09:24:51;;;;;;;0.28;0.28;;;30.60;63.70;;;;;;4828487;29;20218;-81
2023/07/21 09:27:21;;;;;;;3.38;1.50;;;30.70;63.80;;;;;;4833010;29;20230;-83
2023/07/21 09:29:58;;;;;;;1.30;0.80;;;30.80;63.70;;;;;;4836122;29;20281;-81
2023/07/21 09:32:28;;;;;;;1.55;1.08;;;30.70;62.80;;;;;;4832837;29;20198;-81
2023/07/21 09:35:00;;;;;;;1.38;0.70;;;30.80;62.70;;;;;;4835098;29;20298;-80
2023/07/21 09:37:30;;;;;;;0.80;0.65;;;30.90;62.70;;;;;;4831461;29;20630;-81
2023/07/21 09:40:00;;;;;;;0.82;0.63;;;30.90;61.90;;;;;;4834476;29;20198;-80
2023/07/21 09:42:30;;;;;;;0.20;0.20;;;30.90;61.90;;;;;;4838893;29;20198;-81
2023/07/21 09:45:02;;;;;;;0.52;0.52;;;30.90;62.20;;;;;;4835580;29;20669;-81
2023/07/21 09:47:30;;;;;;;1.23;0.63;;;31.10;62.30;;;;;;4836482;29;20215;-82
2023/07/21 09:50:00;;;;;;;0.88;0.80;;;31.10;61.80;;;;;;4833095;29;20259;-87
2023/07/21 09:52:35;;;;;;;1.38;1.20;;;31.10;61.60;;;;;;4841650;29;20203;-88
2023/07/21 09:55:10;;;;;;;1.83;1.42;;;31.20;61.90;;;;;;4835687;29;20219;-87
2023/07/21 09:57:43;;;;;;;1.25;0.80;;;31.20;60.80;;;;;;4832838;29;20250;-85
2023/07/21 10:00:14;;;;;;;0.77;0.77;;;31.30;60.70;;;;;;4832689;29;20195;-85
2023/07/21 10:02:45;;;;;;;0.43;0.40;;;31.30;60.40;;;;;;4838348;29;20266;-85
2023/07/21 10:05:16;;;;;;;2.38;0.63;;;31.40;60.70;;;;;;4836555;29;20219;-85
2023/07/21 10:07:46;;;;;;;1.02;0.63;;;31.40;59.80;;;;;;4835160;29;20211;-85
2023/07/21 10:10:16;;;;;;;0.88;0.57;;;31.40;59.90;;;;;;4837038;29;20782;-85
2023/07/21 10:12:49;;;;;;;0.50;0.50;;;31.40;59.90;;;;;;4837356;29;20202;-85
2023/07/21 10:15:20;;;;;;;0.47;0.47;;;31.50;60.20;;;;;;4818471;29;20231;-84
2023/07/21 10:17:58;;;;;;;0.50;0.50;;;31.60;59.90;;;;;;4834885;29;20207;-85
2023/07/21 10:20:43;;;;;;;0.50;0.50;;;31.60;60.10;;;;;;4832416;29;20676;-86
2023/07/21 10:23:13;;;;;;;0.73;0.57;;;31.70;60.00;;;;;;4834592;29;20287;-87
2023/07/21 10:25:57;;;;;;;0.45;0.45;;;31.70;59.50;;;;;;4823629;29;20274;-85
2023/07/21 10:28:33;;;;;;;0.50;0.50;;;31.80;59.90;;;;;;4835016;29;20211;-84
2023/07/21 10:31:32;;;;;;;0.73;0.47;;;31.80;59.50;;;;;;4833495;29;20245;-86
2023/07/21 10:34:05;;;;;;;1.00;0.50;;;31.90;59.50;;;;;;4835702;29;20304;-85
2023/07/21 10:36:44;;;;;;;0.90;0.88;;;31.90;59.50;;;;;;4836375;29;20229;-86
2023/07/21 10:39:16;;;;;;;1.00;1.00;;;32.00;59.50;;;;;;4828992;29;20202;-86
2023/07/21 10:41:45;;;;;;;0.82;0.70;;;32.00;58.10;;;;;;4832670;29;20206;-84
2023/07/21 10:44:13;;;;;;;0.57;0.57;;;32.10;59.20;;;;;;4840326;29;20313;-85
2023/07/21 10:46:43;;;;;;;8.45;0.95;;;32.10;58.80;;;;;;4834034;29;20546;-85
2023/07/21 10:49:13;;;;;;;0.95;0.52;;;32.20;58.40;;;;;;4834903;29;20222;-85
2023/07/21 10:51:44;;;;;;;0.82;0.63;;;32.20;58.50;;;;;;4824620;29;20289;-86
2023/07/21 10:54:14;;;;;;;0.20;0.20;;;32.30;58.70;;;;;;4835079;29;20603;-86
2023/07/21 10:56:46;;;;;;;0.43;0.40;;;32.30;58.60;;;;;;4830835;29;20249;-83
2023/07/21 10:59:16;;;;;;;0.30;0.30;;;32.40;58.50;;;;;;4834052;29;20203;-85
2023/07/21 11:01:46;;;;;;;1.75;0.90;;;32.40;58.60;;;;;;4831083;29;20203;-84
2023/07/21 11:04:16;;;;;;;1.17;1.02;;;32.40;57.70;;;;;;4826761;29;20231;-85
2023/07/21 11:06:49;;;;;;;0.40;0.40;;;32.40;56.50;;;;;;4834844;29;20297;-85
2023/07/21 11:09:21;;;;;;;0.57;0.47;;;32.40;57.00;;;;;;4834438;29;20633;-85
2023/07/21 11:11:52;;;;;;;1.13;0.98;;;32.50;57.00;;;;;;4806442;29;20199;-86
2023/07/21 11:14:23;;;;;;;0.40;0.40;;;32.50;56.80;;;;;;4835856;29;20202;-85
2023/07/21 11:16:54;;;;;;;0.85;0.85;;;32.60;56.30;;;;;;4825479;29;20289;-86
2023/07/21 11:19:24;;;;;;;0.50;0.50;;;32.60;56.50;;;;;;4833017;29;20194;-85
2023/07/21 11:21:54;;;;;;;0.55;0.40;;;32.60;56.70;;;;;;4831508;29;20198;-84
2023/07/21 11:24:29;;;;;;;0.28;0.28;;;32.60;56.60;;;;;;4815413;29;20217;-85
2023/07/21 11:27:03;;;;;;;1.15;1.05;;;32.70;57.00;;;;;;4832645;29;20203;-85
2023/07/21 11:29:38;;;;;;;0.43;0.40;;;32.80;57.30;;;;;;4833036;29;20203;-85
2023/07/21 11:32:18;;;;;;;1.20;0.75;;;32.90;57.40;;;;;;4831881;29;20198;-86
2023/07/21 11:34:46;;;;;;;1.58;0.70;;;32.90;57.10;;;;;;4812056;29;20194;-86
2023/07/21 11:37:17;;;;;;;2.90;0.57;;;32.90;56.30;;;;;;4827711;29;20214;-86
2023/07/21 11:39:56;;;;;;;0.57;0.55;;;33.00;56.10;;;;;;4835437;29;20205;-85
2023/07/21 11:42:26;;;;;;;0.30;0.30;;;33.00;56.20;;;;;;4837015;29;20194;-86
2023/07/21 11:44:55;;;;;;;1.08;0.88;;;33.00;55.60;;;;;;4821575;29;20241;-86
2023/07/21 11:47:23;;;;;;;0.60;0.60;;;33.10;55.60;;;;;;4820638;29;20207;-85
2023/07/21 11:49:55;;;;;;;0.40;0.40;;;33.10;55.40;;;;;;4833889;29;20203;-86
2023/07/21 11:52:26;;;;;;;0.50;0.50;;;33.10;55.60;;;;;;4834755;29;20727;-86
2023/07/21 11:54:58;;;;;;;2.15;0.60;;;33.10;55.50;;;;;;4821771;29;20660;-87
2023/07/21 11:57:27;;;;;;;0.43;0.43;;;33.20;55.50;;;;;;4833361;29;20217;-87
2023/07/21 11:59:56;;;;;;;0.55;0.55;;;33.20;55.30;;;;;;4832381;29;20205;-84
2023/07/21 12:02:25;;;;;;;0.45;0.45;;;33.20;55.10;;;;;;4834566;29;20222;-85
2023/07/21 12:04:54;;;;;;;0.30;0.30;;;33.20;54.80;;;;;;4836587;29;20282;-87
2023/07/21 12:07:25;;;;;;;0.40;0.40;;;33.30;54.80;;;;;;4834034;29;20202;-85
2023/07/21 12:09:54;;;;;;;0.40;0.40;;;33.40;54.70;;;;;;4834596;29;20326;-86
2023/07/21 12:12:23;;;;;;;1.15;0.88;;;33.40;53.90;;;;;;4833201;29;20202;-84
2023/07/21 12:14:52;;;;;;;0.55;0.55;;;33.40;53.40;;;;;;4817653;29;20793;-85
2023/07/21 12:17:21;;;;;;;1.08;0.57;;;33.40;53.20;;;;;;4838097;29;20777;-85
2023/07/21 12:19:50;;;;;;;0.20;0.20;;;33.50;53.80;;;;;;4837515;29;20207;-84
2023/07/21 12:22:19;;;;;;;0.40;0.30;;;33.60;54.10;;;;;;4841024;29;20194;-84
2023/07/21 12:24:49;;;;;;;1.45;1.17;;;33.60;54.00;;;;;;4836115;29;20206;-86
2023/07/21 12:27:18;;;;;;;4.47;0.52;;;33.60;53.60;;;;;;4832406;29;20210;-85
2023/07/21 12:29:46;;;;;;;1.27;0.82;;;33.80;54.00;;;;;;4835084;29;20289;-84
2023/07/21 12:32:15;;;;;;;1.83;1.40;;;33.80;53.70;;;;;;4840962;29;20274;-84
2023/07/21 12:34:43;;;;;;;0.40;0.40;;;33.90;53.80;;;;;;4839580;29;20231;-84
2023/07/21 12:37:12;;;;;;;1.75;1.05;;;33.90;53.30;;;;;;4835151;29;20267;-85
2023/07/21 12:39:41;;;;;;;3.28;1.02;;;34.00;53.50;;;;;;4816179;29;20562;-85
2023/07/21 12:42:11;;;;;;;1.75;0.75;;;34.10;53.60;;;;;;4832289;29;20660;-83
2023/07/21 12:44:39;;;;;;;1.48;0.45;;;34.10;53.40;;;;;;4836055;29;20233;-83
2023/07/21 12:47:08;;;;;;;0.60;0.43;;;34.10;52.80;;;;;;4840783;29;20262;-83
2023/07/21 12:49:38;;;;;;;1.25;0.60;;;34.10;53.00;;;;;;4836762;29;20202;-82
2023/07/21 12:52:07;;;;;;;2.13;1.17;;;34.10;53.10;;;;;;4839668;29;20206;-84
2023/07/21 12:54:36;;;;;;;0.45;0.40;;;34.00;52.10;;;;;;4839778;29;20224;-84
2023/07/21 12:57:06;;;;;;;0.95;0.88;;;34.00;51.90;;;;;;4836583;29;20207;-84
2023/07/21 12:59:36;;;;;;;0.20;0.20;;;33.90;51.90;;;;;;4836332;29;20202;-84
2023/07/21 13:02:05;;;;;;;0.55;0.40;;;33.90;52.30;;;;;;4837856;29;20293;-84
2023/07/21 13:04:34;;;;;;;0.40;0.30;;;33.90;52.30;;;;;;4820422;29;20206;-85
2023/07/21 13:07:09;;;;;;;0.32;0.32;;;33.90;52.20;;;;;;4833839;29;20223;-86
2023/07/21 13:09:37;;;;;;;0.47;0.38;;;33.90;52.40;;;;;;4835929;29;20990;-86